Airfield :
LOGIN :

Register | Disclaimer

   EN    FR    IT 

 










Legend :    VFR   Marginal VFR   IFR   Intensive IFR   Very Intensive IFR
Visi :
Ceiling :
>= 8 km
>= 3000ft
5 to 8 km
1000 to 3000 ft
1500m to 5 km
500 to 1000 ft
800 to 1500m
200 to 500 ft
< 800m
< 200 ft
Symbols :   Thunderstorms  Fog  Heavy snow  Heavy precipitations  Wind > 20 kt
SIGMETs :     Misc.  Thunderstorms  Icing  Turbulence  Mountain Waves  Volcanic Ashes







- Airport Elevation : 375 ft
- IATA code : MST


EHBK - Maastricht Aachen

CURRENT METAR :
  • 170255Z AUTO 18009KT 9999 FEW026 OVC031 05/03 Q1013

EXPIRED METARs :
  • 170225Z AUTO 18007KT 9999 SCT026 BKN029 BKN033 04/03 Q1013
  • 170155Z AUTO 17006KT 9999 FEW042 BKN049 04/03 Q1013
  • 170125Z AUTO 16006KT 9999 NSC 04/03 Q1012
  • 170055Z AUTO 17007KT 9999 NSC 04/03 Q1012
  • 170025Z AUTO 18009KT 9999 NSC 04/03 Q1012

TAF TAF EHBK
Valid from the 17 at 00:00 until the 18 at 06:00 UTC


162319Z 1700/1806 19008KT 9999 SCT018
PROB30 1700/1702 7000 BKN008
BECMG 1706/1709 BKN015
PROB40
TEMPO 1706/1710 3500 DZRA BKN008
BECMG 1708/1710 23012KT
PROB30 1721/1801 5000 BR -DZ BKN006
BECMG 1800/1803 20008KT
No reported NOTAMs for that airfield.



MET'MAP, your aeronautical weather chart ! - Copyright ORBIFLY December 2007 - Disclaimer

ORBIFLY MET'MAP TEAM :

Programming & Development : Alexandra Zaïnal
Concept & Development : Baudouin d'Aumeries
Co-Development & Prog : Marc-Olivier Méhu
Technical & hardware support : Manuel Goepfert

Contact : metmap@orbifly.com




SOURCES & CREDITS :

   NOAA